sensor_id;sensor_type;location;lat;lon;timestamp;pressure;altitude;pressure_sealevel;temperature;humidity
61628;BME280;55193;52.102;5.242;2022-10-26T00:01:13;101369.0;;;12.86;99.97
61628;BME280;55193;52.102;5.242;2022-10-26T00:02:52;101369.0;;;12.94;99.65
61628;BME280;55193;52.102;5.242;2022-10-26T00:04:29;101366.0;;;12.96;99.54
61628;BME280;55193;52.102;5.242;2022-10-26T00:06:07;101363.0;;;12.99;99.53
61628;BME280;55193;52.102;5.242;2022-10-26T00:09:20;101364.0;;;13.05;99.58
61628;BME280;55193;52.102;5.242;2022-10-26T00:10:57;101363.0;;;13.03;99.66
61628;BME280;55193;52.102;5.242;2022-10-26T00:12:33;101361.0;;;13.06;99.61
61628;BME280;55193;52.102;5.242;2022-10-26T00:15:45;101363.0;;;13.1;99.18
61628;BME280;55193;52.102;5.242;2022-10-26T00:17:21;101358.0;;;13.1;99.03
61628;BME280;55193;52.102;5.242;2022-10-26T00:18:57;101361.0;;;13.1;99.58
61628;BME280;55193;52.102;5.242;2022-10-26T00:22:09;101356.0;;;13.09;99.63
61628;BME280;55193;52.102;5.242;2022-10-26T00:23:46;101356.0;;;13.1;99.24
61628;BME280;55193;52.102;5.242;2022-10-26T00:25:22;101355.0;;;13.1;99.31
61628;BME280;55193;52.102;5.242;2022-10-26T00:26:58;101347.0;;;13.13;99.28
61628;BME280;55193;52.102;5.242;2022-10-26T00:30:11;101344.0;;;13.15;99.3
61628;BME280;55193;52.102;5.242;2022-10-26T00:31:47;101343.0;;;13.32;98.45
61628;BME280;55193;52.102;5.242;2022-10-26T00:33:23;101341.0;;;13.24;98.57
61628;BME280;55193;52.102;5.242;2022-10-26T00:36:36;101334.0;;;13.3;98.68
61628;BME280;55193;52.102;5.242;2022-10-26T00:38:13;101335.0;;;13.33;98.27
61628;BME280;55193;52.102;5.242;2022-10-26T00:39:49;101332.0;;;13.33;98.11
61628;BME280;55193;52.102;5.242;2022-10-26T00:43:12;101335.0;;;13.29;98.37
61628;BME280;55193;52.102;5.242;2022-10-26T00:44:59;101330.0;;;13.27;98.58
61628;BME280;55193;52.102;5.242;2022-10-26T00:46:37;101327.0;;;13.3;98.5
61628;BME280;55193;52.102;5.242;2022-10-26T00:48:22;101326.0;;;13.31;98.45
61628;BME280;55193;52.102;5.242;2022-10-26T00:50:04;101325.0;;;13.33;98.32
61628;BME280;55193;52.102;5.242;2022-10-26T00:53:26;101319.0;;;13.31;98.74
61628;BME280;55193;52.102;5.242;2022-10-26T00:55:04;101318.0;;;13.38;98.41
61628;BME280;55193;52.102;5.242;2022-10-26T00:56:41;101312.0;;;13.41;98.11
61628;BME280;55193;52.102;5.242;2022-10-26T00:58:18;101311.0;;;13.43;98.05
61628;BME280;55193;52.102;5.242;2022-10-26T01:01:37;101315.0;;;13.47;98.13
61628;BME280;55193;52.102;5.242;2022-10-26T01:03:16;101305.0;;;13.46;97.66
61628;BME280;55193;52.102;5.242;2022-10-26T01:04:52;101308.0;;;13.5;98.0
61628;BME280;55193;52.102;5.242;2022-10-26T01:08:09;101307.0;;;13.61;97.8
61628;BME280;55193;52.102;5.242;2022-10-26T01:09:45;101313.0;;;13.58;97.48
61628;BME280;55193;52.102;5.242;2022-10-26T01:11:22;101311.0;;;13.6;97.42
61628;BME280;55193;52.102;5.242;2022-10-26T01:12:59;101311.0;;;13.6;97.78
61628;BME280;55193;52.102;5.242;2022-10-26T01:16:28;101309.0;;;13.61;97.75
61628;BME280;55193;52.102;5.242;2022-10-26T01:18:25;101305.0;;;13.61;97.47
61628;BME280;55193;52.102;5.242;2022-10-26T01:20:25;101305.0;;;13.58;97.4
61628;BME280;55193;52.102;5.242;2022-10-26T01:22:15;101300.0;;;13.63;97.44
61628;BME280;55193;52.102;5.242;2022-10-26T01:25:26;101299.0;;;13.62;97.72
61628;BME280;55193;52.102;5.242;2022-10-26T01:27:12;101293.0;;;13.62;97.72
61628;BME280;55193;52.102;5.242;2022-10-26T01:29:13;101288.0;;;13.61;97.9
61628;BME280;55193;52.102;5.242;2022-10-26T01:31:03;101291.0;;;13.68;97.54
61628;BME280;55193;52.102;5.242;2022-10-26T01:32:52;101284.0;;;13.69;97.11
61628;BME280;55193;52.102;5.242;2022-10-26T01:34:40;101282.0;;;13.68;97.4
61628;BME280;55193;52.102;5.242;2022-10-26T01:36:25;101283.0;;;13.65;97.53
61628;BME280;55193;52.102;5.242;2022-10-26T01:38:10;101280.0;;;13.7;97.09
61628;BME280;55193;52.102;5.242;2022-10-26T01:41:34;101281.0;;;13.77;96.7
61628;BME280;55193;52.102;5.242;2022-10-26T01:43:14;101274.0;;;13.77;96.64
61628;BME280;55193;52.102;5.242;2022-10-26T01:44:53;101277.0;;;13.74;96.35
61628;BME280;55193;52.102;5.242;2022-10-26T01:46:35;101270.0;;;13.72;97.03
61628;BME280;55193;52.102;5.242;2022-10-26T01:49:57;101265.0;;;13.74;96.47
61628;BME280;55193;52.102;5.242;2022-10-26T01:51:36;101273.0;;;13.74;96.43
61628;BME280;55193;52.102;5.242;2022-10-26T01:53:14;101269.0;;;13.69;96.64
61628;BME280;55193;52.102;5.242;2022-10-26T01:54:58;101268.0;;;13.66;97.18
61628;BME280;55193;52.102;5.242;2022-10-26T01:58:28;101271.0;;;13.68;97.08
61628;BME280;55193;52.102;5.242;2022-10-26T02:01:25;101269.0;;;13.64;97.47
61628;BME280;55193;52.102;5.242;2022-10-26T02:03:12;101271.0;;;13.59;97.35
61628;BME280;55193;52.102;5.242;2022-10-26T02:07:00;101268.0;;;13.55;97.99
61628;BME280;55193;52.102;5.242;2022-10-26T02:08:53;101267.0;;;13.57;97.98
61628;BME280;55193;52.102;5.242;2022-10-26T02:10:39;101268.0;;;13.56;97.62
61628;BME280;55193;52.102;5.242;2022-10-26T02:12:29;101264.0;;;13.55;97.87
61628;BME280;55193;52.102;5.242;2022-10-26T02:14:18;101264.0;;;13.55;97.9
61628;BME280;55193;52.102;5.242;2022-10-26T02:16:00;101262.0;;;13.52;98.02
61628;BME280;55193;52.102;5.242;2022-10-26T02:19:31;101262.0;;;13.62;97.63
61628;BME280;55193;52.102;5.242;2022-10-26T02:21:13;101257.0;;;13.67;97.21
61628;BME280;55193;52.102;5.242;2022-10-26T02:22:53;101263.0;;;13.65;97.42
61628;BME280;55193;52.102;5.242;2022-10-26T02:24:32;101262.0;;;13.69;96.98
61628;BME280;55193;52.102;5.242;2022-10-26T02:26:13;101255.0;;;13.65;97.14
61628;BME280;55193;52.102;5.242;2022-10-26T02:29:34;101256.0;;;13.7;97.47
61628;BME280;55193;52.102;5.242;2022-10-26T02:31:12;101251.0;;;13.69;97.12
61628;BME280;55193;52.102;5.242;2022-10-26T02:32:52;101250.0;;;13.75;96.63
61628;BME280;55193;52.102;5.242;2022-10-26T02:34:31;101240.0;;;13.82;96.56
61628;BME280;55193;52.102;5.242;2022-10-26T02:37:56;101237.0;;;13.82;96.61
61628;BME280;55193;52.102;5.242;2022-10-26T02:39:35;101230.0;;;13.86;95.88
61628;BME280;55193;52.102;5.242;2022-10-26T02:41:14;101224.0;;;13.84;95.92
61628;BME280;55193;52.102;5.242;2022-10-26T02:42:55;101221.0;;;13.86;95.62
61628;BME280;55193;52.102;5.242;2022-10-26T02:46:19;101224.0;;;13.82;95.83
61628;BME280;55193;52.102;5.242;2022-10-26T02:47:58;101225.0;;;13.81;95.92
61628;BME280;55193;52.102;5.242;2022-10-26T02:49:34;101221.0;;;13.77;96.58
61628;BME280;55193;52.102;5.242;2022-10-26T02:53:00;101224.0;;;13.77;96.82
61628;BME280;55193;52.102;5.242;2022-10-26T02:54:48;101224.0;;;13.8;96.44
61628;BME280;55193;52.102;5.242;2022-10-26T02:56:31;101227.0;;;13.88;96.3
61628;BME280;55193;52.102;5.242;2022-10-26T02:58:15;101226.0;;;13.91;95.97
61628;BME280;55193;52.102;5.242;2022-10-26T02:59:54;101223.0;;;13.9;95.77
61628;BME280;55193;52.102;5.242;2022-10-26T03:03:08;101222.0;;;13.88;96.07
61628;BME280;55193;52.102;5.242;2022-10-26T03:04:45;101221.0;;;13.83;96.47
61628;BME280;55193;52.102;5.242;2022-10-26T03:06:24;101218.0;;;13.85;96.3
61628;BME280;55193;52.102;5.242;2022-10-26T03:08:02;101219.0;;;13.84;96.48
61628;BME280;55193;52.102;5.242;2022-10-26T03:11:14;101217.0;;;13.78;97.14
61628;BME280;55193;52.102;5.242;2022-10-26T03:12:51;101219.0;;;13.86;96.31
61628;BME280;55193;52.102;5.242;2022-10-26T03:14:28;101215.0;;;13.86;96.56
61628;BME280;55193;52.102;5.242;2022-10-26T03:17:41;101210.0;;;13.88;96.15
61628;BME280;55193;52.102;5.242;2022-10-26T03:19:17;101217.0;;;13.87;96.67
61628;BME280;55193;52.102;5.242;2022-10-26T03:20:54;101215.0;;;13.86;96.47
61628;BME280;55193;52.102;5.242;2022-10-26T03:24:06;101207.0;;;13.95;95.77
61628;BME280;55193;52.102;5.242;2022-10-26T03:25:43;101207.0;;;14.01;95.53
61628;BME280;55193;52.102;5.242;2022-10-26T03:27:19;101207.0;;;13.95;95.52
61628;BME280;55193;52.102;5.242;2022-10-26T03:28:56;101208.0;;;14.0;95.52
61628;BME280;55193;52.102;5.242;2022-10-26T03:32:09;101212.0;;;13.97;95.63
61628;BME280;55193;52.102;5.242;2022-10-26T03:33:45;101215.0;;;14.01;95.41
61628;BME280;55193;52.102;5.242;2022-10-26T03:35:22;101213.0;;;14.06;95.43
61628;BME280;55193;52.102;5.242;2022-10-26T03:38:34;101210.0;;;14.09;94.92
61628;BME280;55193;52.102;5.242;2022-10-26T03:40:11;101213.0;;;14.09;95.18
61628;BME280;55193;52.102;5.242;2022-10-26T03:41:47;101208.0;;;14.12;94.92
61628;BME280;55193;52.102;5.242;2022-10-26T03:45:00;101206.0;;;14.09;95.14
61628;BME280;55193;52.102;5.242;2022-10-26T03:46:36;101200.0;;;14.11;95.43
61628;BME280;55193;52.102;5.242;2022-10-26T03:48:12;101198.0;;;14.11;95.17
61628;BME280;55193;52.102;5.242;2022-10-26T03:49:49;101193.0;;;14.17;94.59
61628;BME280;55193;52.102;5.242;2022-10-26T03:53:01;101198.0;;;14.13;94.52
61628;BME280;55193;52.102;5.242;2022-10-26T03:54:37;101203.0;;;14.12;94.38
61628;BME280;55193;52.102;5.242;2022-10-26T03:56:14;101194.0;;;14.15;94.5
61628;BME280;55193;52.102;5.242;2022-10-26T03:59:26;101193.0;;;14.11;94.5
61628;BME280;55193;52.102;5.242;2022-10-26T04:01:02;101194.0;;;14.12;94.18
61628;BME280;55193;52.102;5.242;2022-10-26T04:02:38;101192.0;;;14.2;94.08
61628;BME280;55193;52.102;5.242;2022-10-26T04:05:50;101194.0;;;14.21;93.66
61628;BME280;55193;52.102;5.242;2022-10-26T04:07:26;101189.0;;;14.19;93.92
61628;BME280;55193;52.102;5.242;2022-10-26T04:09:03;101200.0;;;14.19;94.22
61628;BME280;55193;52.102;5.242;2022-10-26T04:12:15;101199.0;;;14.25;94.17
61628;BME280;55193;52.102;5.242;2022-10-26T04:13:51;101200.0;;;14.21;94.12
61628;BME280;55193;52.102;5.242;2022-10-26T04:15:28;101196.0;;;14.21;94.4
61628;BME280;55193;52.102;5.242;2022-10-26T04:17:04;101196.0;;;14.27;94.0
61628;BME280;55193;52.102;5.242;2022-10-26T04:20:17;101193.0;;;14.35;93.57
61628;BME280;55193;52.102;5.242;2022-10-26T04:21:53;101190.0;;;14.36;93.5
61628;BME280;55193;52.102;5.242;2022-10-26T04:23:29;101188.0;;;14.32;93.4
61628;BME280;55193;52.102;5.242;2022-10-26T04:26:44;101182.0;;;14.34;93.36
61628;BME280;55193;52.102;5.242;2022-10-26T04:28:20;101180.0;;;14.32;93.67
61628;BME280;55193;52.102;5.242;2022-10-26T04:29:57;101181.0;;;14.36;93.54
61628;BME280;55193;52.102;5.242;2022-10-26T04:33:09;101183.0;;;14.39;93.29
61628;BME280;55193;52.102;5.242;2022-10-26T04:34:45;101183.0;;;14.41;93.51
61628;BME280;55193;52.102;5.242;2022-10-26T04:36:21;101188.0;;;14.47;93.18
61628;BME280;55193;52.102;5.242;2022-10-26T04:37:59;101187.0;;;14.51;92.47
61628;BME280;55193;52.102;5.242;2022-10-26T04:41:12;101185.0;;;14.46;92.99
61628;BME280;55193;52.102;5.242;2022-10-26T04:42:48;101177.0;;;14.51;92.65
61628;BME280;55193;52.102;5.242;2022-10-26T04:44:25;101175.0;;;14.49;93.02
61628;BME280;55193;52.102;5.242;2022-10-26T04:47:37;101169.0;;;14.57;92.16
61628;BME280;55193;52.102;5.242;2022-10-26T04:49:14;101165.0;;;14.59;92.13
61628;BME280;55193;52.102;5.242;2022-10-26T04:50:50;101166.0;;;14.56;92.07
61628;BME280;55193;52.102;5.242;2022-10-26T04:54:02;101170.0;;;14.57;91.97
61628;BME280;55193;52.102;5.242;2022-10-26T04:55:39;101170.0;;;14.6;92.03
61628;BME280;55193;52.102;5.242;2022-10-26T04:57:16;101167.0;;;14.57;91.64
61628;BME280;55193;52.102;5.242;2022-10-26T04:58:53;101170.0;;;14.62;91.28
61628;BME280;55193;52.102;5.242;2022-10-26T05:02:09;101173.0;;;14.62;91.29
61628;BME280;55193;52.102;5.242;2022-10-26T05:03:48;101182.0;;;14.56;91.58
61628;BME280;55193;52.102;5.242;2022-10-26T05:05:24;101180.0;;;14.61;91.29
61628;BME280;55193;52.102;5.242;2022-10-26T05:08:37;101184.0;;;14.62;91.02
61628;BME280;55193;52.102;5.242;2022-10-26T05:10:13;101184.0;;;14.59;91.08
61628;BME280;55193;52.102;5.242;2022-10-26T05:11:50;101187.0;;;14.57;91.49
61628;BME280;55193;52.102;5.242;2022-10-26T05:15:03;101180.0;;;14.57;91.56
61628;BME280;55193;52.102;5.242;2022-10-26T05:16:40;101186.0;;;14.56;91.16
61628;BME280;55193;52.102;5.242;2022-10-26T05:18:16;101184.0;;;14.57;91.32
61628;BME280;55193;52.102;5.242;2022-10-26T05:19:54;101184.0;;;14.57;91.57
61628;BME280;55193;52.102;5.242;2022-10-26T05:23:10;101180.0;;;14.6;91.13
61628;BME280;55193;52.102;5.242;2022-10-26T05:24:46;101192.0;;;14.52;91.57
61628;BME280;55193;52.102;5.242;2022-10-26T05:26:23;101187.0;;;14.56;91.57
61628;BME280;55193;52.102;5.242;2022-10-26T05:29:37;101189.0;;;14.53;91.64
61628;BME280;55193;52.102;5.242;2022-10-26T05:31:14;101194.0;;;14.46;92.23
61628;BME280;55193;52.102;5.242;2022-10-26T05:32:52;101185.0;;;14.43;92.54
61628;BME280;55193;52.102;5.242;2022-10-26T05:34:29;101187.0;;;14.48;92.4
61628;BME280;55193;52.102;5.242;2022-10-26T05:37:42;101183.0;;;14.44;92.62
61628;BME280;55193;52.102;5.242;2022-10-26T05:39:18;101186.0;;;14.42;92.95
61628;BME280;55193;52.102;5.242;2022-10-26T05:40:54;101188.0;;;14.38;93.03
61628;BME280;55193;52.102;5.242;2022-10-26T05:44:06;101186.0;;;14.36;93.33
61628;BME280;55193;52.102;5.242;2022-10-26T05:45:43;101190.0;;;14.38;93.36
61628;BME280;55193;52.102;5.242;2022-10-26T05:47:19;101188.0;;;14.37;93.43
61628;BME280;55193;52.102;5.242;2022-10-26T05:50:31;101189.0;;;14.42;93.36
61628;BME280;55193;52.102;5.242;2022-10-26T05:52:07;101193.0;;;14.41;93.41
61628;BME280;55193;52.102;5.242;2022-10-26T05:53:43;101194.0;;;14.47;93.08
61628;BME280;55193;52.102;5.242;2022-10-26T05:55:20;101198.0;;;14.45;92.82
61628;BME280;55193;52.102;5.242;2022-10-26T05:58:35;101200.0;;;14.42;93.12
61628;BME280;55193;52.102;5.242;2022-10-26T06:00:16;101197.0;;;14.41;93.54
61628;BME280;55193;52.102;5.242;2022-10-26T06:02:03;101194.0;;;14.43;93.3
61628;BME280;55193;52.102;5.242;2022-10-26T06:03:55;101194.0;;;14.4;93.55
61628;BME280;55193;52.102;5.242;2022-10-26T06:07:21;101197.0;;;14.46;93.2
61628;BME280;55193;52.102;5.242;2022-10-26T06:08:59;101200.0;;;14.46;92.96
61628;BME280;55193;52.102;5.242;2022-10-26T06:10:36;101201.0;;;14.42;93.48
61628;BME280;55193;52.102;5.242;2022-10-26T06:12:13;101207.0;;;14.44;93.19
61628;BME280;55193;52.102;5.242;2022-10-26T06:15:29;101203.0;;;14.4;93.41
61628;BME280;55193;52.102;5.242;2022-10-26T06:17:20;101211.0;;;14.41;93.15
61628;BME280;55193;52.102;5.242;2022-10-26T06:19:15;101205.0;;;14.39;93.02
61628;BME280;55193;52.102;5.242;2022-10-26T06:21:08;101208.0;;;14.4;93.41
61628;BME280;55193;52.102;5.242;2022-10-26T06:22:58;101209.0;;;14.44;93.13
61628;BME280;55193;52.102;5.242;2022-10-26T06:24:48;101206.0;;;14.43;93.18
61628;BME280;55193;52.102;5.242;2022-10-26T06:28:24;101198.0;;;14.45;93.05
61628;BME280;55193;52.102;5.242;2022-10-26T06:31:45;101205.0;;;14.39;93.39
61628;BME280;55193;52.102;5.242;2022-10-26T06:33:22;101209.0;;;14.42;93.37
61628;BME280;55193;52.102;5.242;2022-10-26T06:36:56;101207.0;;;14.44;93.32
61628;BME280;55193;52.102;5.242;2022-10-26T06:38:36;101202.0;;;14.44;93.36
61628;BME280;55193;52.102;5.242;2022-10-26T06:40:17;101205.0;;;14.44;93.38
61628;BME280;55193;52.102;5.242;2022-10-26T06:41:54;101205.0;;;14.43;93.45
61628;BME280;55193;52.102;5.242;2022-10-26T06:43:34;101205.0;;;14.47;93.31
61628;BME280;55193;52.102;5.242;2022-10-26T06:46:55;101206.0;;;14.49;93.23
61628;BME280;55193;52.102;5.242;2022-10-26T06:48:44;101208.0;;;14.49;93.15
61628;BME280;55193;52.102;5.242;2022-10-26T06:50:32;101210.0;;;14.5;93.06
61628;BME280;55193;52.102;5.242;2022-10-26T06:52:15;101213.0;;;14.57;92.95
61628;BME280;55193;52.102;5.242;2022-10-26T06:53:59;101210.0;;;14.59;92.91
61628;BME280;55193;52.102;5.242;2022-10-26T06:57:20;101212.0;;;14.65;92.54
61628;BME280;55193;52.102;5.242;2022-10-26T06:59:05;101214.0;;;14.63;92.64
61628;BME280;55193;52.102;5.242;2022-10-26T07:00:52;101214.0;;;14.69;92.47
61628;BME280;55193;52.102;5.242;2022-10-26T07:02:29;101202.0;;;14.72;92.29
61628;BME280;55193;52.102;5.242;2022-10-26T07:05:42;101199.0;;;14.71;92.48
61628;BME280;55193;52.102;5.242;2022-10-26T07:07:20;101193.0;;;14.67;92.64
61628;BME280;55193;52.102;5.242;2022-10-26T07:08:58;101201.0;;;14.72;92.5
61628;BME280;55193;52.102;5.242;2022-10-26T07:12:14;101206.0;;;14.72;92.67
61628;BME280;55193;52.102;5.242;2022-10-26T07:13:51;101205.0;;;14.75;92.57
61628;BME280;55193;52.102;5.242;2022-10-26T07:15:27;101209.0;;;14.74;92.63
61628;BME280;55193;52.102;5.242;2022-10-26T07:17:03;101213.0;;;14.8;92.8
61628;BME280;55193;52.102;5.242;2022-10-26T07:20:18;101212.0;;;14.84;92.23
61628;BME280;55193;52.102;5.242;2022-10-26T07:21:58;101215.0;;;14.83;92.43
61628;BME280;55193;52.102;5.242;2022-10-26T07:23:34;101213.0;;;14.86;92.23
61628;BME280;55193;52.102;5.242;2022-10-26T07:26:48;101214.0;;;14.88;91.98
61628;BME280;55193;52.102;5.242;2022-10-26T07:28:24;101219.0;;;14.82;92.65
61628;BME280;55193;52.102;5.242;2022-10-26T07:30:01;101223.0;;;14.84;92.25
61628;BME280;55193;52.102;5.242;2022-10-26T07:31:36;101230.0;;;14.9;92.02
61628;BME280;55193;52.102;5.242;2022-10-26T07:34:49;101230.0;;;14.95;91.45
61628;BME280;55193;52.102;5.242;2022-10-26T07:36:27;101238.0;;;14.9;91.7
61628;BME280;55193;52.102;5.242;2022-10-26T07:38:04;101234.0;;;14.96;91.83
61628;BME280;55193;52.102;5.242;2022-10-26T07:41:18;101233.0;;;14.98;92.06
61628;BME280;55193;52.102;5.242;2022-10-26T07:42:55;101234.0;;;14.99;92.47
61628;BME280;55193;52.102;5.242;2022-10-26T07:44:33;101235.0;;;15.08;92.57
61628;BME280;55193;52.102;5.242;2022-10-26T07:47:45;101240.0;;;15.22;91.59
61628;BME280;55193;52.102;5.242;2022-10-26T07:49:21;101241.0;;;15.27;91.35
61628;BME280;55193;52.102;5.242;2022-10-26T07:50:59;101244.0;;;15.41;90.98
61628;BME280;55193;52.102;5.242;2022-10-26T07:52:36;101245.0;;;15.46;90.65
61628;BME280;55193;52.102;5.242;2022-10-26T07:55:52;101248.0;;;15.57;90.19
61628;BME280;55193;52.102;5.242;2022-10-26T07:57:29;101249.0;;;15.62;89.92
61628;BME280;55193;52.102;5.242;2022-10-26T07:59:05;101255.0;;;15.75;89.72
61628;BME280;55193;52.102;5.242;2022-10-26T08:02:18;101261.0;;;15.87;88.84
61628;BME280;55193;52.102;5.242;2022-10-26T08:03:55;101265.0;;;15.97;88.86
61628;BME280;55193;52.102;5.242;2022-10-26T08:05:32;101268.0;;;16.05;87.85
61628;BME280;55193;52.102;5.242;2022-10-26T08:07:10;101267.0;;;16.07;87.82
61628;BME280;55193;52.102;5.242;2022-10-26T08:10:22;101263.0;;;16.13;87.61
61628;BME280;55193;52.102;5.242;2022-10-26T08:11:58;101257.0;;;16.23;87.18
61628;BME280;55193;52.102;5.242;2022-10-26T08:13:34;101267.0;;;16.22;87.07
61628;BME280;55193;52.102;5.242;2022-10-26T08:16:51;101270.0;;;16.15;87.28
61628;BME280;55193;52.102;5.242;2022-10-26T08:18:28;101267.0;;;16.23;87.28
61628;BME280;55193;52.102;5.242;2022-10-26T08:20:05;101274.0;;;16.27;87.0
61628;BME280;55193;52.102;5.242;2022-10-26T08:23:18;101281.0;;;16.39;87.13
61628;BME280;55193;52.102;5.242;2022-10-26T08:24:55;101282.0;;;16.47;86.31
61628;BME280;55193;52.102;5.242;2022-10-26T08:26:31;101281.0;;;16.59;86.11
61628;BME280;55193;52.102;5.242;2022-10-26T08:28:07;101282.0;;;16.7;85.5
61628;BME280;55193;52.102;5.242;2022-10-26T08:31:21;101285.0;;;16.72;84.85
61628;BME280;55193;52.102;5.242;2022-10-26T08:32:58;101283.0;;;16.79;84.42
61628;BME280;55193;52.102;5.242;2022-10-26T08:34:35;101285.0;;;16.86;84.62
61628;BME280;55193;52.102;5.242;2022-10-26T08:37:48;101303.0;;;16.95;84.31
61628;BME280;55193;52.102;5.242;2022-10-26T08:39:27;101303.0;;;17.06;84.2
61628;BME280;55193;52.102;5.242;2022-10-26T08:41:06;101306.0;;;17.09;83.96
61628;BME280;55193;52.102;5.242;2022-10-26T08:42:45;101306.0;;;17.07;84.01
61628;BME280;55193;52.102;5.242;2022-10-26T08:46:11;101305.0;;;17.07;84.37
61628;BME280;55193;52.102;5.242;2022-10-26T08:47:52;101301.0;;;17.0;84.68
61628;BME280;55193;52.102;5.242;2022-10-26T08:49:37;101301.0;;;17.0;84.67
61628;BME280;55193;52.102;5.242;2022-10-26T08:51:22;101301.0;;;16.95;85.08
61628;BME280;55193;52.102;5.242;2022-10-26T08:54:50;101300.0;;;16.96;85.08
61628;BME280;55193;52.102;5.242;2022-10-26T08:56:34;101296.0;;;16.89;85.63
61628;BME280;55193;52.102;5.242;2022-10-26T08:58:15;101301.0;;;16.95;86.0
61628;BME280;55193;52.102;5.242;2022-10-26T08:59:58;101293.0;;;17.12;86.09
61628;BME280;55193;52.102;5.242;2022-10-26T09:01:36;101286.0;;;17.2;85.8
61628;BME280;55193;52.102;5.242;2022-10-26T09:04:51;101293.0;;;17.36;85.33
61628;BME280;55193;52.102;5.242;2022-10-26T09:06:34;101294.0;;;17.56;84.73
61628;BME280;55193;52.102;5.242;2022-10-26T09:08:22;101294.0;;;17.68;84.35
61628;BME280;55193;52.102;5.242;2022-10-26T09:10:15;101290.0;;;17.79;84.17
61628;BME280;55193;52.102;5.242;2022-10-26T09:13:54;101286.0;;;17.87;83.36
61628;BME280;55193;52.102;5.242;2022-10-26T09:15:44;101292.0;;;17.8;83.41
61628;BME280;55193;52.102;5.242;2022-10-26T09:17:36;101284.0;;;17.84;82.93
61628;BME280;55193;52.102;5.242;2022-10-26T09:19:28;101285.0;;;17.8;83.7
61628;BME280;55193;52.102;5.242;2022-10-26T09:21:19;101287.0;;;17.77;83.63
61628;BME280;55193;52.102;5.242;2022-10-26T09:23:05;101287.0;;;17.79;84.12
61628;BME280;55193;52.102;5.242;2022-10-26T09:24:53;101289.0;;;17.95;83.66
61628;BME280;55193;52.102;5.242;2022-10-26T09:28:15;101292.0;;;18.07;83.39
61628;BME280;55193;52.102;5.242;2022-10-26T09:29:52;101299.0;;;18.16;83.38
61628;BME280;55193;52.102;5.242;2022-10-26T09:31:37;101309.0;;;18.27;82.66
61628;BME280;55193;52.102;5.242;2022-10-26T09:33:19;101316.0;;;18.29;82.1
61628;BME280;55193;52.102;5.242;2022-10-26T09:36:38;101312.0;;;18.45;82.11
61628;BME280;55193;52.102;5.242;2022-10-26T09:38:19;101324.0;;;18.54;81.69
61628;BME280;55193;52.102;5.242;2022-10-26T09:40:05;101330.0;;;18.61;81.3
61628;BME280;55193;52.102;5.242;2022-10-26T09:41:51;101330.0;;;18.61;80.66
61628;BME280;55193;52.102;5.242;2022-10-26T09:43:35;101333.0;;;18.61;80.58
61628;BME280;55193;52.102;5.242;2022-10-26T09:47:03;101337.0;;;18.55;81.33
61628;BME280;55193;52.102;5.242;2022-10-26T09:48:44;101337.0;;;18.61;81.56
61628;BME280;55193;52.102;5.242;2022-10-26T09:50:27;101343.0;;;18.61;81.25
61628;BME280;55193;52.102;5.242;2022-10-26T09:52:06;101345.0;;;18.7;81.16
61628;BME280;55193;52.102;5.242;2022-10-26T09:55:20;101347.0;;;18.68;81.33
61628;BME280;55193;52.102;5.242;2022-10-26T09:56:58;101351.0;;;18.82;81.36
61628;BME280;55193;52.102;5.242;2022-10-26T09:58:39;101355.0;;;18.84;81.47
61628;BME280;55193;52.102;5.242;2022-10-26T10:00:24;101355.0;;;18.91;81.75
61628;BME280;55193;52.102;5.242;2022-10-26T10:04:14;101363.0;;;18.91;80.88
61628;BME280;55193;52.102;5.242;2022-10-26T10:05:52;101361.0;;;18.93;81.08
61628;BME280;55193;52.102;5.242;2022-10-26T10:07:29;101355.0;;;19.02;80.97
61628;BME280;55193;52.102;5.242;2022-10-26T10:09:06;101357.0;;;19.11;80.83
61628;BME280;55193;52.102;5.242;2022-10-26T10:11:04;101356.0;;;19.13;81.22
61628;BME280;55193;52.102;5.242;2022-10-26T10:12:42;101358.0;;;19.21;81.27
61628;BME280;55193;52.102;5.242;2022-10-26T10:16:03;101364.0;;;19.28;81.19
61628;BME280;55193;52.102;5.242;2022-10-26T10:17:46;101360.0;;;19.25;81.05
61628;BME280;55193;52.102;5.242;2022-10-26T10:19:25;101361.0;;;19.34;81.11
61628;BME280;55193;52.102;5.242;2022-10-26T10:22:52;101364.0;;;19.5;80.66
61628;BME280;55193;52.102;5.242;2022-10-26T10:24:31;101374.0;;;19.62;79.86
61628;BME280;55193;52.102;5.242;2022-10-26T10:26:10;101365.0;;;19.61;80.19
61628;BME280;55193;52.102;5.242;2022-10-26T10:27:51;101367.0;;;19.66;79.77
61628;BME280;55193;52.102;5.242;2022-10-26T10:29:30;101374.0;;;19.68;79.53
61628;BME280;55193;52.102;5.242;2022-10-26T10:33:04;101378.0;;;19.7;79.98
61628;BME280;55193;52.102;5.242;2022-10-26T10:34:42;101388.0;;;19.81;79.7
61628;BME280;55193;52.102;5.242;2022-10-26T10:36:21;101389.0;;;19.86;79.56
61628;BME280;55193;52.102;5.242;2022-10-26T10:37:58;101394.0;;;19.81;80.27
61628;BME280;55193;52.102;5.242;2022-10-26T10:41:18;101399.0;;;19.75;79.97
61628;BME280;55193;52.102;5.242;2022-10-26T10:43:05;101405.0;;;19.79;80.66
61628;BME280;55193;52.102;5.242;2022-10-26T10:44:51;101416.0;;;19.77;80.37
61628;BME280;55193;52.102;5.242;2022-10-26T10:46:27;101425.0;;;19.77;80.45
61628;BME280;55193;52.102;5.242;2022-10-26T10:49:53;101422.0;;;19.7;80.97
61628;BME280;55193;52.102;5.242;2022-10-26T10:51:37;101422.0;;;19.71;80.86
61628;BME280;55193;52.102;5.242;2022-10-26T10:53:16;101418.0;;;19.64;81.56
61628;BME280;55193;52.102;5.242;2022-10-26T10:55:09;101430.0;;;19.66;81.95
61628;BME280;55193;52.102;5.242;2022-10-26T10:56:51;101435.0;;;19.61;82.0
61628;BME280;55193;52.102;5.242;2022-10-26T11:00:18;101439.0;;;19.48;82.56
61628;BME280;55193;52.102;5.242;2022-10-26T11:02:05;101439.0;;;19.46;82.73
61628;BME280;55193;52.102;5.242;2022-10-26T11:04:09;101451.0;;;19.41;83.27
61628;BME280;55193;52.102;5.242;2022-10-26T11:06:02;101450.0;;;19.34;83.72
61628;BME280;55193;52.102;5.242;2022-10-26T11:07:46;101459.0;;;19.34;83.98
61628;BME280;55193;52.102;5.242;2022-10-26T11:09:28;101459.0;;;19.37;83.53